Bookmark and Share
Track history (hours):
 

Mary Gellatly

More information available from US FCC via Universal Licensing System and Coast Guard Vessel Documentation Center.

Last reported at 2013-Jan-13 20:33 UTC. Time now 2014-Apr-19 07:08 UTC.
Position N 40°45' W 073°58'.
Warning: this ship's position is years out of date!

Length 30 m; draft 5 m.

Type: Tug. MMSI: 367382680.

NotesDate/timePositionNaut miles runAvg speedWind from/ knotsBaromVisibWave heightAir tempDewpointWater temp
2013-Jan-13 20:33N 40°45' W 073°58'7 7.4
2013-Jan-13 19:33N 40°38' W 074°03'1 1.2
2013-Jan-13 18:28N 40°37' W 074°04'0 0.0
2013-Jan-13 17:31N 40°37' W 074°04'0 0.0
2013-Jan-13 16:31N 40°37' W 074°04'0 0.0
2013-Jan-13 15:31N 40°37' W 074°04'0 0.0
2013-Jan-13 14:31N 40°37' W 074°04'0 0.0
2013-Jan-13 13:31N 40°37' W 074°04'0 0.0
2013-Jan-13 12:31N 40°37' W 074°04'0 0.0
2013-Jan-13 11:37N 40°37' W 074°04'0 0.0
2013-Jan-13 10:31N 40°37' W 074°04'0 0.0
2013-Jan-13 09:31N 40°37' W 074°04'0 0.0
2013-Jan-13 08:31N 40°37' W 074°04'0 0.0
2013-Jan-13 07:31N 40°37' W 074°04'0 0.0
2013-Jan-13 06:28N 40°37' W 074°04'0 0.0
2013-Jan-13 05:37N 40°37' W 074°04'0 0.0
2013-Jan-13 04:31N 40°37' W 074°04'0 0.0
2013-Jan-13 03:31N 40°37' W 074°04'0 0.0
2013-Jan-13 02:34N 40°37' W 074°04'5 1.1
2013-Jan-12 21:33N 40°39' W 074°10'5 5.0
2013-Jan-12 20:30N 40°37' W 074°04'0 0.0
2013-Jan-12 19:29N 40°37' W 074°04'2 2.2
2013-Jan-12 18:29N 40°39' W 074°06'0 0.0
2013-Jan-12 17:32N 40°39' W 074°06'0 0.0
2013-Jan-12 16:32N 40°39' W 074°06'0 0.0
2013-Jan-12 15:29N 40°39' W 074°06'0 0.0
2013-Jan-12 14:32N 40°39' W 074°06'0 0.0
2013-Jan-12 13:32N 40°39' W 074°06'0 0.0
2013-Jan-12 12:32N 40°39' W 074°06'0 0.0
2013-Jan-12 11:38N 40°39' W 074°06'0 0.0
2013-Jan-12 10:32N 40°39' W 074°06'0 0.2
2013-Jan-12 09:33N 40°39' W 074°06'2 1.9
2013-Jan-12 08:33N 40°40' W 074°03'3 2.5
2013-Jan-12 07:32N 40°37' W 074°04'0 0.0
2013-Jan-12 05:35N 40°37' W 074°04'0 0.0
2013-Jan-12 04:23N 40°37' W 074°04'0 0.0
2013-Jan-12 03:29N 40°37' W 074°04'0 0.0
2013-Jan-12 02:29N 40°37' W 074°04'0 0.0
2013-Jan-12 01:29N 40°37' W 074°04'0 0.0
2013-Jan-12 00:32N 40°37' W 074°04'0 0.0
2013-Jan-11 23:29N 40°37' W 074°04'1 1.6
2013-Jan-11 22:33N 40°39' W 074°04'2 1.9
2013-Jan-11 21:28N 40°40' W 074°03'4 3.6
2013-Jan-11 20:29N 40°37' W 074°04'0 0.0
2013-Jan-11 19:32N 40°37' W 074°04'0 0.0
2013-Jan-11 18:32N 40°37' W 074°04'0 0.0
2013-Jan-11 17:29N 40°37' W 074°04'0 0.0
2013-Jan-11 16:32N 40°37' W 074°04'0 0.0
2013-Jan-11 15:32N 40°37' W 074°04'0 0.0
2013-Jan-11 14:32N 40°37' W 074°04'0 0.0
2013-Jan-11 13:32N 40°37' W 074°04'0 0.0
2013-Jan-11 12:32N 40°37' W 074°04'0 0.0
2013-Jan-11 11:47N 40°37' W 074°04'3 2.5
2013-Jan-11 10:33N 40°40' W 074°03'3 1.4
2013-Jan-11 08:30N 40°37' W 074°03'0 0.2
2013-Jan-11 07:27N 40°37' W 074°03'0 0.0
2013-Jan-11 06:27N 40°37' W 074°03'0 0.0
2013-Jan-11 05:36N 40°37' W 074°03'0 0.0
2013-Jan-11 04:30N 40°37' W 074°03'0 0.0
2013-Jan-11 03:33N 40°37' W 074°03'0 0.0
2013-Jan-11 02:24N 40°37' W 074°03'1 1.1
2013-Jan-11 01:33N 40°38' W 074°03'3 2.7
2013-Jan-11 00:31N 40°40' W 074°00'0 0.2
2013-Jan-10 23:33N 40°40' W 074°00'0 0.3
2013-Jan-10 22:32N 40°40' W 074°00'0 0.0
2013-Jan-10 21:29N 40°40' W 074°00'0 0.0
2013-Jan-10 20:32N 40°40' W 074°00'0 0.2
2013-Jan-10 19:33N 40°40' W 074°01'2 2.2
2013-Jan-10 18:33N 40°39' W 074°03'1 1.1
2013-Jan-10 17:33N 40°38' W 074°03'1 0.9
2013-Jan-10 16:33N 40°37' W 074°04'0 0.0
2013-Jan-10 15:33N 40°37' W 074°04'0 0.0
2013-Jan-10 14:33N 40°37' W 074°04'0 0.0
2013-Jan-10 13:33N 40°37' W 074°04'0 0.0
2013-Jan-10 12:33N 40°37' W 074°04'0 0.0
2013-Jan-10 11:36N 40°37' W 074°04'0 0.0
2013-Jan-10 10:33N 40°37' W 074°04'0 0.0
2013-Jan-10 09:33N 40°37' W 074°04'0 0.0
2013-Jan-10 08:33N 40°37' W 074°04'0 0.0
2013-Jan-10 07:33N 40°37' W 074°04'2 2.2
2013-Jan-10 06:29N 40°39' W 074°05'2 2.1
2013-Jan-10 05:32N 40°39' W 074°03'0 0.0
2013-Jan-10 04:32N 40°39' W 074°03'0 0.0
2013-Jan-10 03:32N 40°39' W 074°03'0 0.1
2013-Jan-10 02:32N 40°39' W 074°03'0 0.0
2013-Jan-10 01:32N 40°39' W 074°03'0 0.2
2013-Jan-10 00:32N 40°39' W 074°03'0 0.0
2013-Jan-09 23:32N 40°39' W 074°03'1 1.2
2013-Jan-09 22:33N 40°39' W 074°04'1 1.2
2013-Jan-09 21:33N 40°39' W 074°06'0 0.1
2013-Jan-09 20:28N 40°39' W 074°06'1 1.0
2013-Jan-09 19:33N 40°39' W 074°07'0 0.0
2013-Jan-09 18:30N 40°39' W 074°07'2 1.7
2013-Jan-09 17:33N 40°39' W 074°09'2 2.4
2013-Jan-09 16:33N 40°41' W 074°09'0 0.0
2013-Jan-09 15:33N 40°41' W 074°09'0 0.0
2013-Jan-09 14:30N 40°41' W 074°09'0 0.0
2013-Jan-09 13:33N 40°41' W 074°09'0 0.0
2013-Jan-09 12:27N 40°41' W 074°09'0 0.0
2013-Jan-09 11:36N 40°41' W 074°09'0 0.0
2013-Jan-09 10:24N 40°41' W 074°09'0 0.0
2013-Jan-09 09:24N 40°41' W 074°09'0 0.0
2013-Jan-09 08:30N 40°41' W 074°09'0 0.0
2013-Jan-09 07:33N 40°41' W 074°09'0 0.0
2013-Jan-09 06:33N 40°41' W 074°09'0 0.0
2013-Jan-09 05:51N 40°41' W 074°09'0 0.0
2013-Jan-09 04:30N 40°41' W 074°09'0 0.4
2013-Jan-09 03:33N 40°41' W 074°09'2 2.4
2013-Jan-09 02:32N 40°39' W 074°09'4 4.2
2013-Jan-09 01:33N 40°37' W 074°04'0 0.0
2013-Jan-09 00:33N 40°37' W 074°04'0 0.0
2013-Jan-08 23:33N 40°37' W 074°04'0 0.0
2013-Jan-08 22:33N 40°37' W 074°04'0 0.0
2013-Jan-08 21:33N 40°37' W 074°04'1 1.3
2013-Jan-08 20:33N 40°38' W 074°03'0 0.1
2013-Jan-08 19:33N 40°38' W 074°03'1 1.0
2013-Jan-08 18:27N 40°37' W 074°03'0 0.0
2013-Jan-08 17:33N 40°37' W 074°03'0 0.0
2013-Jan-08 16:30N 40°37' W 074°03'0 0.0
2013-Jan-08 15:33N 40°37' W 074°03'0 0.0
2013-Jan-08 14:33N 40°37' W 074°03'0 0.0
2013-Jan-08 13:27N 40°37' W 074°03'4 4.1
2013-Jan-08 12:33N 40°40' W 074°00'0 0.0
2013-Jan-08 11:36N 40°40' W 074°00'0 0.0
2013-Jan-08 10:33N 40°40' W 074°00'0 0.0
2013-Jan-08 09:33N 40°40' W 074°00'0 0.0
2013-Jan-08 08:33N 40°40' W 074°00'0 0.0
2013-Jan-08 07:33N 40°40' W 074°00'0 0.0
2013-Jan-08 06:33N 40°40' W 074°00'0 0.0
2013-Jan-08 05:36N 40°40' W 074°00'0 0.0
2013-Jan-08 04:33N 40°40' W 074°00'0 0.0
2013-Jan-08 03:33N 40°40' W 074°00'0 0.0
2013-Jan-08 02:31N 40°40' W 074°00'2 1.9
2013-Jan-08 01:29N 40°40' W 074°03'0 0.0
2013-Jan-08 00:32N 40°40' W 074°03'5 4.8
2013-Jan-07 23:33N 40°38' W 074°09'2 2.0
2013-Jan-07 22:33N 40°39' W 074°11'7 7.0
2013-Jan-07 21:33N 40°39' W 074°02'1 1.3
2013-Jan-07 20:33N 40°38' W 074°03'1 1.1
2013-Jan-07 19:32N 40°37' W 074°04'0 0.0
2013-Jan-07 18:32N 40°37' W 074°04'0 0.0
2013-Jan-07 17:32N 40°37' W 074°04'0 0.0
2013-Jan-07 16:32N 40°37' W 074°04'0 0.0
2013-Jan-07 15:32N 40°37' W 074°04'0 0.0
2013-Jan-07 14:32N 40°37' W 074°04'0 0.0
2013-Jan-07 13:32N 40°37' W 074°04'0 0.0
2013-Jan-07 12:32N 40°37' W 074°04'0 0.0
2013-Jan-07 11:35N 40°37' W 074°04'0 0.0
2013-Jan-07 10:32N 40°37' W 074°04'0 0.0
2013-Jan-07 09:32N 40°37' W 074°04'0 0.0
2013-Jan-07 08:32N 40°37' W 074°04'0 0.0
2013-Jan-07 07:32N 40°37' W 074°04'0 0.0
2013-Jan-07 06:32N 40°37' W 074°04'0 0.0
2013-Jan-07 05:32N 40°37' W 074°04'0 0.0
2013-Jan-07 04:32N 40°37' W 074°04'0 0.0
2013-Jan-07 03:28N 40°37' W 074°04'0 0.0
2013-Jan-07 02:32N 40°37' W 074°04'0 0.0
2013-Jan-07 01:32N 40°37' W 074°04'0 0.0
2013-Jan-07 00:31N 40°37' W 074°04'0 0.0
2013-Jan-06 23:32N 40°37' W 074°04'0 0.0
2013-Jan-06 22:32N 40°37' W 074°04'0 0.0
2013-Jan-06 21:32N 40°37' W 074°04'0 0.0
2013-Jan-06 20:31N 40°37' W 074°04'0 0.0
2013-Jan-06 19:32N 40°37' W 074°04'0 0.0
2013-Jan-06 18:29N 40°37' W 074°04'0 0.0
2013-Jan-06 17:31N 40°37' W 074°04'0 0.0
2013-Jan-06 16:32N 40°37' W 074°04'0 0.0
2013-Jan-06 15:29N 40°37' W 074°04'0 0.0
2013-Jan-06 14:32N 40°37' W 074°04'0 0.0
2013-Jan-06 13:31N 40°37' W 074°04'0 0.0
2013-Jan-06 12:32N 40°37' W 074°04'0 0.0
2013-Jan-06 11:55N 40°37' W 074°04'0 0.0
2013-Jan-06 10:31N 40°37' W 074°04'0 0.0
2013-Jan-06 09:31N 40°37' W 074°04'0 0.0
2013-Jan-06 08:31N 40°37' W 074°04'0 0.0
2013-Jan-06 07:31N 40°37' W 074°04'0 0.0
2013-Jan-06 06:31N 40°37' W 074°04'0 0.0
2013-Jan-06 05:58N 40°37' W 074°04'0 0.0
2013-Jan-06 04:31N 40°37' W 074°04'0 0.0
2013-Jan-06 03:31N 40°37' W 074°04'0 0.0
2013-Jan-06 02:31N 40°37' W 074°04'0 0.0
2013-Jan-06 01:31N 40°37' W 074°04'0 0.0
2013-Jan-06 00:31N 40°37' W 074°04'0 0.0
2013-Jan-05 23:31N 40°37' W 074°04'0 0.0
2013-Jan-05 22:31N 40°37' W 074°04'0 0.0
2013-Jan-05 21:25N 40°37' W 074°04'0 0.0
2013-Jan-05 20:31N 40°37' W 074°04'0 0.0
2013-Jan-05 19:31N 40°37' W 074°04'0 0.0
2013-Jan-05 18:31N 40°37' W 074°04'0 0.0
2013-Jan-05 17:31N 40°37' W 074°04'0 0.0
2013-Jan-05 16:31N 40°37' W 074°04'0 0.0
2013-Jan-05 15:31N 40°37' W 074°04'0 0.0
2013-Jan-05 14:28N 40°37' W 074°04'0 0.0
2013-Jan-05 13:31N 40°37' W 074°04'0 0.0
2013-Jan-05 12:31N 40°37' W 074°04'0 0.0
2013-Jan-05 11:37N 40°37' W 074°04'0 0.0
2013-Jan-05 10:31N 40°37' W 074°04'0 0.0
2013-Jan-05 09:31N 40°37' W 074°04'0 0.0
2013-Jan-05 08:31N 40°37' W 074°04'0 0.0
2013-Jan-05 07:31N 40°37' W 074°04'0 0.0
2013-Jan-05 06:31N 40°37' W 074°04'0 0.0
2013-Jan-05 05:34N 40°37' W 074°04'0 0.0
2013-Jan-05 04:31N 40°37' W 074°04'0 0.0
2013-Jan-05 03:31N 40°37' W 074°04'0 0.0
2013-Jan-05 02:31N 40°37' W 074°04'0 0.0
2013-Jan-05 01:31N 40°37' W 074°04'0 0.0
2013-Jan-05 00:31N 40°37' W 074°04'0 0.0
2013-Jan-04 23:31N 40°37' W 074°04'0 0.0
2013-Jan-04 22:31N 40°37' W 074°04'0 0.0
2013-Jan-04 21:31N 40°37' W 074°04'0 0.0
2013-Jan-04 20:31N 40°37' W 074°04'0 0.0
2013-Jan-04 19:31N 40°37' W 074°04'0 0.0
2013-Jan-04 18:31N 40°37' W 074°04'0 0.0
2013-Jan-04 17:31N 40°37' W 074°04'0 0.0
2013-Jan-04 16:31N 40°37' W 074°04'0 0.0
2013-Jan-04 15:28N 40°37' W 074°04'0 0.0
2013-Jan-04 14:31N 40°37' W 074°04'0 0.0
2013-Jan-04 13:31N 40°37' W 074°04'0 0.0
2013-Jan-04 12:31N 40°37' W 074°04'0 0.0
2013-Jan-04 11:37N 40°37' W 074°04'0 0.0
2013-Jan-04 10:31N 40°37' W 074°04'0 0.0
2013-Jan-04 09:31N 40°37' W 074°04'0 0.0
2013-Jan-04 08:28N 40°37' W 074°04'0 0.0
2013-Jan-04 07:31N 40°37' W 074°04'0 0.0
2013-Jan-04 06:31N 40°37' W 074°04'0 0.0
2013-Jan-04 05:34N 40°37' W 074°04'0 0.0
2013-Jan-04 04:31N 40°37' W 074°04'0 0.0
2013-Jan-04 03:31N 40°37' W 074°04'0 0.0
2013-Jan-04 02:31N 40°37' W 074°04'0 0.0
2013-Jan-04 01:31N 40°37' W 074°04'0 0.0
2013-Jan-04 00:31N 40°37' W 074°04'0 0.0
2013-Jan-03 23:31N 40°37' W 074°04'0 0.0
2013-Jan-03 22:31N 40°37' W 074°04'0 0.0
2013-Jan-03 21:31N 40°37' W 074°04'  

Dump ship's entire track history

sailing weather and tide predictions

Mary Gellatly — WDE6634 — position and weather